createdAt,value
2023-01-29T00:00:11.847Z,99713.88
2023-01-29T00:03:18.121Z,99712.72
2023-01-29T00:06:23.439Z,99712.03
2023-01-29T00:09:27.079Z,99709.88
2023-01-29T00:12:32.282Z,99714.66
2023-01-29T00:15:36.014Z,99714.84
2023-01-29T00:18:40.469Z,99709.16
2023-01-29T00:21:44.156Z,99721.41
2023-01-29T00:24:47.826Z,99730.06
2023-01-29T00:27:52.923Z,99733.09
2023-01-29T00:30:56.701Z,99730.09
2023-01-29T00:34:00.375Z,99743.91
2023-01-29T00:37:06.676Z,99741.16
2023-01-29T00:40:11.796Z,99741.47
2023-01-29T00:43:34.193Z,99736.38
2023-01-29T00:46:37.880Z,99738.78
2023-01-29T00:49:41.650Z,99742.56
2023-01-29T00:52:46.044Z,99741.84
2023-01-29T00:55:49.817Z,99739.25
2023-01-29T00:58:55.266Z,99743.22
2023-01-29T01:02:16.363Z,99734.69
2023-01-29T01:05:20.737Z,99744.84
2023-01-29T01:08:41.665Z,99745.78
2023-01-29T01:11:45.362Z,99740.88
2023-01-29T01:14:50.710Z,99741.44
2023-01-29T01:17:55.640Z,99738.84
2023-01-29T01:20:59.917Z,99742.28
2023-01-29T01:24:06.260Z,99738.66
2023-01-29T01:27:10.026Z,99743.72
2023-01-29T01:30:18.014Z,99748.34
2023-01-29T01:33:22.002Z,99747.38
2023-01-29T01:36:25.501Z,99752.97
2023-01-29T01:39:29.274Z,99753.31
2023-01-29T01:42:33.722Z,99749.19
2023-01-29T01:45:42.691Z,99749.00
2023-01-29T01:48:49.224Z,99747.84
2023-01-29T01:51:54.459Z,99748.06
2023-01-29T01:54:58.986Z,99742.38
2023-01-29T01:58:08.072Z,99747.47
2023-01-29T02:01:13.694Z,99744.75
2023-01-29T02:04:37.457Z,99756.44
2023-01-29T02:08:01.720Z,99749.22
2023-01-29T02:11:07.467Z,99749.03
2023-01-29T02:14:11.070Z,99747.56
2023-01-29T02:17:18.463Z,99755.41
2023-01-29T02:20:26.020Z,99767.81
2023-01-29T02:23:54.662Z,99769.47
2023-01-29T02:27:09.026Z,99775.22
2023-01-29T02:30:19.054Z,99772.81
2023-01-29T02:33:31.887Z,99777.25
2023-01-29T02:36:43.020Z,99780.75
2023-01-29T02:39:54.964Z,99786.66
2023-01-29T02:43:05.805Z,99774.25
2023-01-29T02:46:17.486Z,99783.56
2023-01-29T02:49:26.443Z,99780.66
2023-01-29T02:52:38.733Z,99776.09
2023-01-29T02:55:48.706Z,99783.25
2023-01-29T02:58:58.962Z,99782.63
2023-01-29T03:02:09.692Z,99787.78
2023-01-29T03:05:19.543Z,99785.41
2023-01-29T03:08:37.369Z,99789.53
2023-01-29T03:11:50.277Z,99793.50
2023-01-29T03:15:19.482Z,99794.53
2023-01-29T03:18:46.125Z,99794.56
2023-01-29T03:21:59.270Z,99796.81
2023-01-29T03:25:24.363Z,99800.75
2023-01-29T03:28:46.632Z,99807.47
2023-01-29T03:32:08.440Z,99805.63
2023-01-29T03:35:21.278Z,99815.56
2023-01-29T03:38:31.879Z,99814.31
2023-01-29T03:41:39.688Z,99812.22
2023-01-29T03:44:52.081Z,99813.78
2023-01-29T03:48:12.404Z,99810.28
2023-01-29T03:51:27.735Z,99816.06
2023-01-29T03:54:40.915Z,99820.09
2023-01-29T03:57:53.881Z,99820.00
2023-01-29T04:01:02.690Z,99823.00
2023-01-29T04:04:15.994Z,99827.84
2023-01-29T04:07:24.783Z,99835.19
2023-01-29T04:10:40.135Z,99833.56
2023-01-29T04:13:44.953Z,99838.00
2023-01-29T04:16:54.756Z,99850.97
2023-01-29T04:20:13.813Z,99853.22
2023-01-29T04:23:25.288Z,99858.31
2023-01-29T04:26:59.608Z,99856.31
2023-01-29T04:30:15.968Z,99853.81
2023-01-29T04:33:30.476Z,99858.06
2023-01-29T04:36:40.269Z,99864.81
2023-01-29T04:39:53.278Z,99865.31
2023-01-29T04:43:05.405Z,99871.88
2023-01-29T04:46:14.936Z,99868.44
2023-01-29T04:49:30.494Z,99862.75
2023-01-29T04:52:44.132Z,99871.31
2023-01-29T04:55:52.670Z,99873.16
2023-01-29T04:59:01.203Z,99879.38
2023-01-29T05:02:07.695Z,99875.81
2023-01-29T05:05:12.780Z,99875.72
2023-01-29T05:08:20.553Z,99880.56
2023-01-29T05:11:26.550Z,99879.44
2023-01-29T05:14:33.842Z,99885.78
2023-01-29T05:17:37.591Z,99889.13
2023-01-29T05:20:43.853Z,99885.75
2023-01-29T05:23:59.534Z,99886.41
2023-01-29T05:27:22.493Z,99893.50
2023-01-29T05:30:25.940Z,99890.47
2023-01-29T05:33:31.493Z,99894.31
2023-01-29T05:36:34.992Z,99901.03
2023-01-29T05:39:38.530Z,99895.97
2023-01-29T05:42:44.074Z,99897.81
2023-01-29T05:45:55.033Z,99900.13
2023-01-29T05:48:59.473Z,99906.13
2023-01-29T05:52:03.045Z,99917.84
2023-01-29T05:55:07.754Z,99918.25
2023-01-29T05:58:12.849Z,99919.06
2023-01-29T06:01:19.012Z,99920.41
2023-01-29T06:04:22.697Z,99923.69
2023-01-29T06:07:26.209Z,99930.34
2023-01-29T06:10:30.169Z,99932.50
2023-01-29T06:13:35.375Z,99928.53
2023-01-29T06:16:39.101Z,99933.09
2023-01-29T06:19:42.787Z,99935.84
2023-01-29T06:22:46.504Z,99937.25
2023-01-29T06:25:50.104Z,99941.72
2023-01-29T06:28:55.106Z,99944.63
2023-01-29T06:31:58.863Z,99955.09
2023-01-29T06:35:02.563Z,99953.81
2023-01-29T06:38:06.137Z,99965.72
2023-01-29T06:41:11.412Z,99964.38
2023-01-29T06:44:16.660Z,99967.91
2023-01-29T06:47:20.247Z,99969.88
2023-01-29T06:50:23.900Z,99976.47
2023-01-29T06:53:27.687Z,99973.75
2023-01-29T06:56:31.460Z,99977.25
2023-01-29T06:59:36.576Z,99977.09
2023-01-29T07:02:40.267Z,99975.81
2023-01-29T07:05:43.876Z,99992.31
2023-01-29T07:08:47.640Z,99983.13
2023-01-29T07:11:51.361Z,99984.75
2023-01-29T07:14:56.476Z,99990.28
2023-01-29T07:18:01.276Z,99998.72
2023-01-29T07:21:07.721Z,100000.44
2023-01-29T07:24:11.586Z,99997.94
2023-01-29T07:27:15.487Z,100000.41
2023-01-29T07:30:21.623Z,99995.16
2023-01-29T07:33:25.696Z,100001.69
2023-01-29T07:36:29.970Z,99996.06
2023-01-29T07:39:33.680Z,99993.38
2023-01-29T07:42:37.536Z,99999.59
2023-01-29T07:45:42.719Z,100000.81
2023-01-29T07:48:46.581Z,99997.13
2023-01-29T07:51:50.365Z,100005.59
2023-01-29T07:54:54.085Z,100009.84
2023-01-29T07:57:58.552Z,100013.25
2023-01-29T08:01:07.825Z,100013.75
2023-01-29T08:04:11.799Z,100014.91
2023-01-29T08:07:15.505Z,100023.06
2023-01-29T08:10:19.636Z,100021.72
2023-01-29T08:13:23.644Z,100024.88
2023-01-29T08:16:28.881Z,100025.75
2023-01-29T08:19:32.600Z,100031.34
2023-01-29T08:22:36.318Z,100025.94
2023-01-29T08:25:40.103Z,100033.31
2023-01-29T08:28:43.868Z,100034.94
2023-01-29T08:31:49.091Z,100031.28
2023-01-29T08:34:52.930Z,100034.19
2023-01-29T08:37:58.577Z,100030.00
2023-01-29T08:41:02.238Z,100033.38
2023-01-29T08:44:06.625Z,100043.94
2023-01-29T08:47:11.969Z,100047.78
2023-01-29T08:50:16.365Z,100053.25
2023-01-29T08:53:24.608Z,100049.22
2023-01-29T08:56:28.317Z,100046.63
2023-01-29T08:59:31.958Z,100051.19
2023-01-29T09:02:37.099Z,100042.28
2023-01-29T09:05:42.071Z,100041.44
2023-01-29T09:08:45.964Z,100040.19
2023-01-29T09:11:49.656Z,100041.97
2023-01-29T09:14:53.555Z,100040.19
2023-01-29T09:17:58.593Z,100044.94
2023-01-29T09:21:02.936Z,100035.81
2023-01-29T09:24:07.641Z,100037.00
2023-01-29T09:27:11.308Z,100043.69
2023-01-29T09:30:15.717Z,100037.75
2023-01-29T09:33:21.191Z,100043.28
2023-01-29T09:36:24.929Z,100035.75
2023-01-29T09:39:28.606Z,100037.59
2023-01-29T09:42:42.097Z,100037.06
2023-01-29T09:45:54.982Z,100033.53
2023-01-29T09:49:05.858Z,100030.66
2023-01-29T09:52:16.658Z,100026.69
2023-01-29T09:55:26.500Z,100019.66
2023-01-29T09:58:33.783Z,100027.66
2023-01-29T10:01:46.353Z,100016.81
2023-01-29T10:05:09.928Z,100016.31
2023-01-29T10:08:38.337Z,100016.25
2023-01-29T10:11:51.254Z,100008.19
2023-01-29T10:15:04.128Z,100009.03
2023-01-29T10:18:47.488Z,100006.28
2023-01-29T10:22:07.617Z,99999.19
2023-01-29T10:25:13.560Z,100002.38
2023-01-29T10:28:21.725Z,99989.19
2023-01-29T10:31:28.870Z,99989.47
2023-01-29T10:34:37.994Z,99978.88
2023-01-29T10:37:44.340Z,99975.66
2023-01-29T10:40:55.030Z,99968.00
2023-01-29T10:44:14.192Z,99972.84
2023-01-29T10:47:45.982Z,99974.41
2023-01-29T10:50:53.847Z,99963.72
2023-01-29T10:54:11.306Z,99963.59
2023-01-29T10:57:24.723Z,99953.84
2023-01-29T11:00:31.917Z,99958.56
2023-01-29T11:03:35.856Z,99950.72
2023-01-29T11:06:39.699Z,99955.13
2023-01-29T11:09:52.188Z,99953.00
2023-01-29T11:12:56.884Z,99953.16
2023-01-29T11:16:00.840Z,99947.91
2023-01-29T11:19:04.684Z,99940.34
2023-01-29T11:22:15.449Z,99939.75
2023-01-29T11:25:21.839Z,99938.97
2023-01-29T11:28:40.769Z,99933.53
2023-01-29T11:31:44.619Z,99917.72
2023-01-29T11:35:05.279Z,99914.91
2023-01-29T11:38:19.783Z,99910.03
2023-01-29T11:41:25.660Z,99910.31
2023-01-29T11:44:33.095Z,99906.84
2023-01-29T11:47:37.095Z,99905.75
2023-01-29T11:50:40.808Z,99900.06
2023-01-29T11:53:46.958Z,99903.84
2023-01-29T11:56:53.055Z,99898.03
2023-01-29T11:59:59.874Z,99900.19
2023-01-29T12:03:12.834Z,99893.69
2023-01-29T12:06:21.409Z,99885.31
2023-01-29T12:09:28.467Z,99893.69
2023-01-29T12:12:43.861Z,99877.63
2023-01-29T12:15:48.761Z,99882.81
2023-01-29T12:18:56.881Z,99874.31
2023-01-29T12:22:05.862Z,99877.50
2023-01-29T12:25:22.968Z,99867.72
2023-01-29T12:28:42.805Z,99865.94
2023-01-29T12:31:55.094Z,99866.88
2023-01-29T12:35:06.109Z,99862.16
2023-01-29T12:38:17.757Z,99853.06
2023-01-29T12:41:35.199Z,99849.63
2023-01-29T12:44:45.245Z,99847.50
2023-01-29T12:47:51.569Z,99858.94
2023-01-29T12:50:57.245Z,99858.72
2023-01-29T12:54:06.923Z,99854.25
2023-01-29T12:57:20.223Z,99858.00
2023-01-29T13:00:29.158Z,99864.41
2023-01-29T13:03:40.911Z,99862.59
2023-01-29T13:06:49.793Z,99865.56
2023-01-29T13:09:58.737Z,99859.19
2023-01-29T13:13:07.799Z,99858.75
2023-01-29T13:16:16.042Z,99857.56
2023-01-29T13:19:27.663Z,99864.03
2023-01-29T13:22:36.849Z,99863.94
2023-01-29T13:25:40.660Z,99856.38
2023-01-29T13:28:46.827Z,99850.22
2023-01-29T13:31:53.977Z,99863.91
2023-01-29T13:35:00.346Z,99860.50
2023-01-29T13:38:04.576Z,99865.13
2023-01-29T13:41:10.093Z,99860.41
2023-01-29T13:44:23.546Z,99859.31
2023-01-29T13:47:31.401Z,99854.47
2023-01-29T13:50:38.927Z,99860.63
2023-01-29T13:53:44.624Z,99862.59
2023-01-29T13:57:00.739Z,99860.59
2023-01-29T14:00:05.602Z,99862.59
2023-01-29T14:04:05.735Z,99868.41
2023-01-29T14:07:51.918Z,99869.44
2023-01-29T14:11:33.878Z,99861.19
2023-01-29T14:15:04.481Z,99867.69
2023-01-29T14:18:18.635Z,99868.06
2023-01-29T14:21:25.477Z,99863.44
2023-01-29T14:24:33.110Z,99865.13
2023-01-29T14:27:38.591Z,99866.78
2023-01-29T14:30:49.741Z,99875.03
2023-01-29T14:33:54.701Z,99878.22
2023-01-29T14:37:02.896Z,99880.66
2023-01-29T14:40:21.816Z,99882.94
2023-01-29T14:43:26.026Z,99889.31
2023-01-29T14:46:46.526Z,99889.44
2023-01-29T14:49:52.137Z,99890.13
2023-01-29T14:53:01.219Z,99887.66
2023-01-29T14:56:14.581Z,99903.09
2023-01-29T14:59:22.281Z,99895.41
2023-01-29T15:02:33.444Z,99888.13
2023-01-29T15:05:40.546Z,99899.78
2023-01-29T15:08:50.323Z,99899.06
2023-01-29T15:12:04.825Z,99900.16
2023-01-29T15:15:18.790Z,99903.44
2023-01-29T15:18:33.202Z,99895.66
2023-01-29T15:21:36.852Z,99908.47
2023-01-29T15:24:42.527Z,99908.91
2023-01-29T15:27:48.060Z,99907.50
2023-01-29T15:30:55.589Z,99903.78
2023-01-29T15:34:03.226Z,99916.72
2023-01-29T15:37:06.981Z,99917.41
2023-01-29T15:40:18.144Z,99929.00
2023-01-29T15:43:25.456Z,99928.41
2023-01-29T15:46:31.748Z,99930.31
2023-01-29T15:49:37.848Z,99931.84
2023-01-29T15:52:42.250Z,99937.06
2023-01-29T15:55:47.646Z,99937.75
2023-01-29T15:58:54.433Z,99947.06
2023-01-29T16:01:58.367Z,99954.53
2023-01-29T16:05:02.982Z,99953.25
2023-01-29T16:08:07.961Z,99965.41
2023-01-29T16:11:12.184Z,99962.63
2023-01-29T16:14:21.844Z,99965.72
2023-01-29T16:17:27.397Z,99973.13
2023-01-29T16:20:39.113Z,99966.28
2023-01-29T16:23:45.749Z,99969.09
2023-01-29T16:26:51.647Z,99970.03
2023-01-29T16:29:56.713Z,99977.88
2023-01-29T16:33:05.302Z,99971.44
2023-01-29T16:36:15.122Z,99976.91
2023-01-29T16:39:22.771Z,99985.28
2023-01-29T16:42:31.395Z,99980.78
2023-01-29T16:45:36.668Z,99980.53
2023-01-29T16:48:40.430Z,99982.00
2023-01-29T16:51:44.131Z,99986.91
2023-01-29T16:54:47.853Z,99990.84
2023-01-29T16:57:54.822Z,99993.06
2023-01-29T17:01:02.634Z,99994.56
2023-01-29T17:04:11.314Z,99992.63
2023-01-29T17:07:21.503Z,99998.63
2023-01-29T17:10:26.530Z,99998.66
2023-01-29T17:13:35.872Z,99994.50
2023-01-29T17:16:51.875Z,99997.63
2023-01-29T17:19:55.658Z,100004.16
2023-01-29T17:22:59.394Z,99998.25
2023-01-29T17:26:03.462Z,100007.03
2023-01-29T17:29:08.524Z,100000.94
2023-01-29T17:32:13.664Z,100002.91
2023-01-29T17:35:18.702Z,99998.66
2023-01-29T17:38:26.326Z,100002.06
2023-01-29T17:41:32.715Z,99998.47
2023-01-29T17:44:36.584Z,100003.31
2023-01-29T17:47:41.724Z,99998.13
2023-01-29T17:50:48.752Z,100002.88
2023-01-29T17:53:52.477Z,100005.56
2023-01-29T17:56:56.587Z,99999.06
2023-01-29T18:00:00.314Z,99989.66
2023-01-29T18:03:05.574Z,99996.03
2023-01-29T18:06:10.464Z,100003.19
2023-01-29T18:09:15.314Z,99999.38
2023-01-29T18:12:19.241Z,100009.75
2023-01-29T18:15:23.206Z,100014.66
2023-01-29T18:18:29.485Z,100008.63
2023-01-29T18:21:33.290Z,100008.56
2023-01-29T18:24:37.049Z,100001.94
2023-01-29T18:27:40.865Z,100004.09
2023-01-29T18:30:47.349Z,100005.56
2023-01-29T18:33:52.684Z,99999.72
2023-01-29T18:36:56.420Z,100008.16
2023-01-29T18:40:00.448Z,100006.09
2023-01-29T18:43:04.514Z,100002.44
2023-01-29T18:46:09.051Z,100000.13
2023-01-29T18:49:14.276Z,100000.63
2023-01-29T18:52:17.954Z,99985.22
2023-01-29T18:55:22.180Z,99985.56
2023-01-29T18:58:35.972Z,99999.06
2023-01-29T19:01:39.972Z,99988.09
2023-01-29T19:04:45.260Z,99998.72
2023-01-29T19:07:49.049Z,99999.22
2023-01-29T19:10:52.692Z,100003.72
2023-01-29T19:13:56.491Z,100002.25
2023-01-29T19:17:01.758Z,100007.31
2023-01-29T19:20:07.782Z,100003.84
2023-01-29T19:23:11.653Z,100009.03
2023-01-29T19:26:15.869Z,100007.78
2023-01-29T19:29:20.384Z,100005.22
2023-01-29T19:32:24.463Z,99999.16
2023-01-29T19:35:29.612Z,100007.53
2023-01-29T19:38:38.347Z,100005.72
2023-01-29T19:41:42.387Z,100015.03
2023-01-29T19:44:46.323Z,100013.38
2023-01-29T19:47:50.029Z,100013.03
2023-01-29T19:50:56.258Z,100009.41
2023-01-29T19:54:00.374Z,100015.25
2023-01-29T19:57:04.720Z,100012.81
2023-01-29T20:00:12.371Z,100013.94
2023-01-29T20:03:16.425Z,100019.25
2023-01-29T20:06:25.339Z,100014.03
2023-01-29T20:09:30.564Z,100006.41
2023-01-29T20:12:34.900Z,100012.50
2023-01-29T20:15:38.531Z,100007.13
2023-01-29T20:18:42.211Z,100011.78
2023-01-29T20:21:49.980Z,100005.16
2023-01-29T20:24:53.708Z,100006.69
2023-01-29T20:27:57.414Z,100013.41
2023-01-29T20:31:01.285Z,100014.38
2023-01-29T20:34:05.214Z,100016.25
2023-01-29T20:37:10.309Z,100020.41
2023-01-29T20:40:15.890Z,100021.50
2023-01-29T20:43:19.749Z,100021.94
2023-01-29T20:46:23.484Z,100024.44
2023-01-29T20:49:28.639Z,100021.28
2023-01-29T20:52:33.721Z,100023.38
2023-01-29T20:55:37.647Z,100024.94
2023-01-29T20:58:41.966Z,100020.47
2023-01-29T21:01:45.828Z,100027.03
2023-01-29T21:04:49.576Z,100022.38
2023-01-29T21:07:54.770Z,100020.16
2023-01-29T21:10:58.459Z,100013.78
2023-01-29T21:14:02.179Z,100025.31
2023-01-29T21:17:06.294Z,100027.31
2023-01-29T21:20:11.276Z,100017.47
2023-01-29T21:23:16.461Z,100011.13
2023-01-29T21:26:20.268Z,100018.53
2023-01-29T21:29:24.041Z,100019.22
2023-01-29T21:32:28.254Z,100020.00
2023-01-29T21:35:32.157Z,100025.91
2023-01-29T21:38:37.383Z,100016.28
2023-01-29T21:41:58.367Z,100017.78
2023-01-29T21:45:02.021Z,100022.88
2023-01-29T21:48:06.173Z,100022.47
2023-01-29T21:51:10.300Z,100012.72
2023-01-29T21:54:15.636Z,100015.94
2023-01-29T21:57:19.339Z,100014.19
2023-01-29T22:00:23.239Z,100011.78
2023-01-29T22:03:26.993Z,100007.44
2023-01-29T22:06:30.645Z,100011.41
2023-01-29T22:09:35.829Z,100003.44
2023-01-29T22:12:39.732Z,100001.31
2023-01-29T22:15:43.444Z,100004.09
2023-01-29T22:18:47.287Z,99991.19
2023-01-29T22:21:51.335Z,99995.97
2023-01-29T22:24:58.467Z,99996.34
2023-01-29T22:28:02.169Z,99992.06
2023-01-29T22:31:06.866Z,99993.28
2023-01-29T22:34:11.333Z,99991.81
2023-01-29T22:37:15.071Z,99982.34
2023-01-29T22:40:20.570Z,99986.09
2023-01-29T22:43:26.238Z,99976.47
2023-01-29T22:46:30.041Z,99981.66
2023-01-29T22:49:33.724Z,99977.34
2023-01-29T22:52:39.671Z,99979.34
2023-01-29T22:55:44.707Z,99980.44
2023-01-29T22:58:52.048Z,99977.50
2023-01-29T23:01:55.809Z,99976.53
2023-01-29T23:04:59.552Z,99980.84
2023-01-29T23:08:03.192Z,99981.56
2023-01-29T23:11:15.231Z,99978.44
2023-01-29T23:14:19.200Z,99974.41
2023-01-29T23:17:22.994Z,99978.34
2023-01-29T23:20:26.749Z,99972.81
2023-01-29T23:23:30.782Z,99967.63
2023-01-29T23:26:53.140Z,99960.63
2023-01-29T23:29:56.883Z,99964.97
2023-01-29T23:33:00.642Z,99958.88
2023-01-29T23:36:04.592Z,99958.56
2023-01-29T23:39:08.562Z,99963.53
2023-01-29T23:42:13.725Z,99950.97
2023-01-29T23:45:17.710Z,99955.47
2023-01-29T23:48:21.696Z,99951.78
2023-01-29T23:51:25.583Z,99949.44
2023-01-29T23:54:29.481Z,99950.78
2023-01-29T23:57:34.546Z,99947.91
